Pagrindinis puslapis
METAR-TAF:

METAR-TAF

Oro uostai :

Anapa, Rusija

platuma: 44-54N, ilguma: 037-19E, Aukštis: 53 m

Dabartinis oras

Ataskaita buvo paskelbta 31 minutes, ne 23:00 UTC
Vėjas 8 kt iš Pietryčių
Temperatūra 13°C
Drėgmė 88%
Slėgis 1017 hPa
Matomumas 10 km arba daugiau
Mažai debesys

METAR: URKA 052300Z 14004MPS 9999 FEW/// 13/11 Q1017 R22/010070 NOSIG RMK QFE758/1011

Laikas: 03:31 (23:31 UTC)

Prognozė

Ataskaita buvo paskelbta 3 valandos ir 35 minutes, ne 19:56 UTC
Prognozė galioja nuo 05 metu 21 UTC su 06 metu 21 UTC
Vėjas 10 kt iš Pietryčių su gūsio iki 19 kt
Matomumas 10 km arba daugiau
Išsisklaidę debesys ne aukštis 2000 ft
Laikinai
nuo 05 metu 21 UTC su 06 metu 06 UTC
Matomumas: 3100 m
Išsisklaidę debesys ne aukštis 1100 ft
rūkana

TAF: URKA 051956Z 0521/0621 14005G10MPS 9999 SCT020 TEMPO 0521/0606 3100 BR SCT011

Orai ataskaitas ir orų prognozės (METAR, TAF).

turimą stotys yra geltonos ir raudonos taškus žemėlapyje.

Perkelti pele per norėdami pamatyti stoties vardą.

Tada spustelėkite, norėdami matyti oro stebėjimo ir prognozės.

Norėdami pakeisti žemėlapį: spustelėkite ant žalios mygtukų su juodo kryžiaus žemyn,; žalią mygtuką su brūkšneliu, jei norite nutolinti; arba žalių rodyklių gretimoms žemėlapius.


METAR-TAF: